createdAt,value
2024-03-12T00:01:11.157Z,11.50
2024-03-12T00:03:45.456Z,10.30
2024-03-12T00:06:13.268Z,10.65
2024-03-12T00:08:43.897Z,11.52
2024-03-12T00:11:11.202Z,9.75
2024-03-12T00:13:38.158Z,11.52
2024-03-12T00:16:06.900Z,11.05
2024-03-12T00:18:34.523Z,11.13
2024-03-12T00:21:04.813Z,11.23
2024-03-12T00:23:31.795Z,11.13
2024-03-12T00:25:58.718Z,11.43
2024-03-12T00:28:25.705Z,10.93
2024-03-12T00:30:53.830Z,10.32
2024-03-12T00:33:21.822Z,10.80
2024-03-12T00:35:49.013Z,10.45
2024-03-12T00:38:19.051Z,11.05
2024-03-12T00:40:46.972Z,11.35
2024-03-12T00:43:15.481Z,11.90
2024-03-12T00:45:42.897Z,10.45
2024-03-12T00:48:11.662Z,11.93
2024-03-12T00:50:39.455Z,10.20
2024-03-12T00:53:07.238Z,11.02
2024-03-12T00:55:34.589Z,12.00
2024-03-12T00:58:01.690Z,10.85
2024-03-12T01:00:34.890Z,10.98
2024-03-12T01:03:02.830Z,12.05
2024-03-12T01:05:32.045Z,10.57
2024-03-12T01:08:01.277Z,11.18
2024-03-12T01:10:30.547Z,11.85
2024-03-12T01:12:59.898Z,12.45
2024-03-12T01:15:28.180Z,11.50
2024-03-12T01:17:56.136Z,11.85
2024-03-12T01:20:26.286Z,11.20
2024-03-12T01:22:55.452Z,12.55
2024-03-12T01:25:23.887Z,12.23
2024-03-12T01:27:56.956Z,11.65
2024-03-12T01:30:28.187Z,11.88
2024-03-12T01:32:56.388Z,11.40
2024-03-12T01:35:25.892Z,12.38
2024-03-12T01:37:53.623Z,11.65
2024-03-12T01:40:31.282Z,12.65
2024-03-12T01:43:05.108Z,12.88
2024-03-12T01:45:34.694Z,11.25
2024-03-12T01:48:10.976Z,12.48
2024-03-12T01:50:40.595Z,12.23
2024-03-12T01:53:08.545Z,12.35
2024-03-12T01:55:44.758Z,12.82
2024-03-12T01:58:17.963Z,12.63
2024-03-12T02:00:46.989Z,11.60
2024-03-12T02:03:14.429Z,12.57
2024-03-12T02:05:42.680Z,11.60
2024-03-12T02:08:11.059Z,12.20
2024-03-12T02:10:38.040Z,12.02
2024-03-12T02:13:05.207Z,12.48
2024-03-12T02:15:34.396Z,12.38
2024-03-12T02:18:01.475Z,11.10
2024-03-12T02:20:28.786Z,13.52
2024-03-12T02:22:57.136Z,12.50
2024-03-12T02:25:24.709Z,11.77
2024-03-12T02:27:52.738Z,11.55
2024-03-12T02:30:20.044Z,12.75
2024-03-12T02:32:50.434Z,13.23
2024-03-12T02:35:18.107Z,13.32
2024-03-12T02:37:45.520Z,12.40
2024-03-12T02:40:16.743Z,12.82
2024-03-12T02:42:44.618Z,12.45
2024-03-12T02:45:21.540Z,12.93
2024-03-12T02:47:49.041Z,12.95
2024-03-12T02:50:17.575Z,12.65
2024-03-12T02:52:46.589Z,11.88
2024-03-12T02:55:14.088Z,12.82
2024-03-12T02:57:41.140Z,12.38
2024-03-12T03:00:17.260Z,12.23
2024-03-12T03:02:45.561Z,11.90
2024-03-12T03:05:13.566Z,13.13
2024-03-12T03:07:42.054Z,13.30
2024-03-12T03:10:11.297Z,13.60
2024-03-12T03:12:38.818Z,12.40
2024-03-12T03:15:06.167Z,11.48
2024-03-12T03:17:33.028Z,13.73
2024-03-12T03:20:00.073Z,12.02
2024-03-12T03:22:26.986Z,11.77
2024-03-12T03:24:54.083Z,12.52
2024-03-12T03:27:20.977Z,12.38
2024-03-12T03:29:47.864Z,12.70
2024-03-12T03:32:15.194Z,13.27
2024-03-12T03:34:43.664Z,12.45
2024-03-12T03:37:12.456Z,12.52
2024-03-12T03:39:39.544Z,12.23
2024-03-12T03:42:08.054Z,13.27
2024-03-12T03:44:35.108Z,12.13
2024-03-12T03:47:01.983Z,13.20
2024-03-12T03:49:28.857Z,12.60
2024-03-12T03:51:55.826Z,12.15
2024-03-12T03:54:22.945Z,11.80
2024-03-12T03:56:49.884Z,12.02
2024-03-12T03:59:17.695Z,11.20
2024-03-12T04:01:44.985Z,11.50
2024-03-12T04:04:14.333Z,11.57
2024-03-12T04:06:45.333Z,11.00
2024-03-12T04:09:12.605Z,12.20
2024-03-12T04:11:39.886Z,11.77
2024-03-12T04:14:09.059Z,12.27
2024-03-12T04:16:35.988Z,11.60
2024-03-12T04:19:03.150Z,11.85
2024-03-12T04:21:30.302Z,12.20
2024-03-12T04:23:57.209Z,11.75
2024-03-12T04:26:24.301Z,11.90
2024-03-12T04:28:51.172Z,11.00
2024-03-12T04:31:22.070Z,11.43
2024-03-12T04:33:53.066Z,11.82
2024-03-12T04:36:23.952Z,13.02
2024-03-12T04:38:51.182Z,11.45
2024-03-12T04:41:19.218Z,11.73
2024-03-12T04:43:46.064Z,11.60
2024-03-12T04:46:12.968Z,11.75
2024-03-12T04:48:40.608Z,12.88
2024-03-12T04:51:07.476Z,12.50
2024-03-12T04:53:34.289Z,12.07
2024-03-12T04:56:01.296Z,11.98
2024-03-12T04:58:28.126Z,10.43
2024-03-12T05:00:55.199Z,12.00
2024-03-12T05:03:22.130Z,12.52
2024-03-12T05:05:48.943Z,12.15
2024-03-12T05:08:15.902Z,12.02
2024-03-12T05:10:42.919Z,12.15
2024-03-12T05:13:09.909Z,11.75
2024-03-12T05:15:37.157Z,11.70
2024-03-12T05:18:04.187Z,14.52
2024-03-12T05:20:34.705Z,13.00
2024-03-12T05:23:03.390Z,12.65
2024-03-12T05:25:43.536Z,11.98
2024-03-12T05:28:11.235Z,12.27
2024-03-12T05:30:39.313Z,12.13
2024-03-12T05:33:11.097Z,13.38
2024-03-12T05:35:40.255Z,11.95
2024-03-12T05:38:23.472Z,12.98
2024-03-12T05:41:19.706Z,13.13
2024-03-12T05:44:05.368Z,12.93
2024-03-12T05:47:10.650Z,11.80
2024-03-12T05:49:41.110Z,13.75
2024-03-12T05:52:08.543Z,13.45
2024-03-12T05:54:35.522Z,12.63
2024-03-12T05:57:02.767Z,13.07
2024-03-12T05:59:29.707Z,14.43
2024-03-12T06:01:56.693Z,12.52
2024-03-12T06:04:23.900Z,12.65
2024-03-12T06:06:50.747Z,13.40
2024-03-12T06:09:23.584Z,13.27
2024-03-12T06:11:50.799Z,13.95
2024-03-12T06:14:17.972Z,12.85
2024-03-12T06:16:45.127Z,13.55
2024-03-12T06:19:12.181Z,12.07
2024-03-12T06:21:39.182Z,12.23
2024-03-12T06:24:06.929Z,11.95
2024-03-12T06:26:34.306Z,14.30
2024-03-12T06:29:01.648Z,13.52
2024-03-12T06:31:28.641Z,13.88
2024-03-12T06:33:55.617Z,14.10
2024-03-12T06:36:23.006Z,15.32
2024-03-12T06:38:52.333Z,14.30
2024-03-12T06:41:19.432Z,14.50
2024-03-12T06:43:46.251Z,14.05
2024-03-12T06:46:20.028Z,14.07
2024-03-12T06:48:47.484Z,14.73
2024-03-12T06:51:14.466Z,14.07
2024-03-12T06:53:41.349Z,13.88
2024-03-12T06:56:08.888Z,15.20
2024-03-12T06:58:35.967Z,14.93
2024-03-12T07:01:03.462Z,15.00
2024-03-12T07:03:32.637Z,15.52
2024-03-12T07:05:59.566Z,15.20
2024-03-12T07:08:27.256Z,14.55
2024-03-12T07:10:54.561Z,15.40
2024-03-12T07:13:24.682Z,15.07
2024-03-12T07:15:52.114Z,14.32
2024-03-12T07:18:22.628Z,14.88
2024-03-12T07:20:53.727Z,15.07
2024-03-12T07:23:20.683Z,15.13
2024-03-12T07:25:47.609Z,15.65
2024-03-12T07:28:14.550Z,15.15
2024-03-12T07:30:41.564Z,15.48
2024-03-12T07:33:08.643Z,14.52
2024-03-12T07:35:36.071Z,15.30
2024-03-12T07:38:04.377Z,14.82
2024-03-12T07:40:31.877Z,16.15
2024-03-12T07:43:00.129Z,15.45
2024-03-12T07:45:28.093Z,14.98
2024-03-12T07:47:55.369Z,18.23
2024-03-12T07:50:22.707Z,15.98
2024-03-12T07:52:49.746Z,15.52
2024-03-12T07:55:16.764Z,17.42
2024-03-12T07:57:43.724Z,16.42
2024-03-12T08:00:15.858Z,17.45
2024-03-12T08:02:43.581Z,15.75
2024-03-12T08:05:12.230Z,14.35
2024-03-12T08:07:39.980Z,17.48
2024-03-12T08:10:07.687Z,18.08
2024-03-12T08:12:34.796Z,17.42
2024-03-12T08:15:02.660Z,16.85
2024-03-12T08:17:30.077Z,15.48
2024-03-12T08:19:58.886Z,18.38
2024-03-12T08:22:26.138Z,17.15
2024-03-12T08:24:55.590Z,17.67
2024-03-12T08:27:22.565Z,17.48
2024-03-12T08:29:50.493Z,17.20
2024-03-12T08:32:17.817Z,17.92
2024-03-12T08:34:44.659Z,17.52
2024-03-12T08:37:13.291Z,17.88
2024-03-12T08:39:41.012Z,18.38
2024-03-12T08:42:10.905Z,18.25
2024-03-12T08:44:38.476Z,19.15
2024-03-12T08:47:06.233Z,18.10
2024-03-12T08:49:34.662Z,18.60
2024-03-12T08:52:01.709Z,18.13
2024-03-12T08:54:29.031Z,18.67
2024-03-12T08:56:56.281Z,18.00
2024-03-12T08:59:23.550Z,17.98
2024-03-12T09:01:50.669Z,20.60
2024-03-12T09:04:18.088Z,18.05
2024-03-12T09:06:45.065Z,18.85
2024-03-12T09:09:15.336Z,20.25
2024-03-12T09:11:42.467Z,17.25
2024-03-12T09:14:09.594Z,16.25
2024-03-12T09:16:36.509Z,18.15
2024-03-12T09:19:06.010Z,20.67
2024-03-12T09:21:35.399Z,20.63
2024-03-12T09:24:02.997Z,18.42
2024-03-12T09:26:30.673Z,20.27
2024-03-12T09:28:59.293Z,19.52
2024-03-12T09:31:26.596Z,18.40
2024-03-12T09:33:54.031Z,18.75
2024-03-12T09:36:21.928Z,19.15
2024-03-12T09:38:52.096Z,19.83
2024-03-12T09:41:21.741Z,19.65
2024-03-12T09:43:49.872Z,17.75
2024-03-12T09:46:18.303Z,18.33
2024-03-12T09:48:47.837Z,20.42
2024-03-12T09:51:15.172Z,18.85
2024-03-12T09:53:48.012Z,18.23
2024-03-12T09:56:17.350Z,18.58
2024-03-12T09:58:45.752Z,19.15
2024-03-12T10:01:14.003Z,20.02
2024-03-12T10:03:47.502Z,19.50
2024-03-12T10:06:14.595Z,19.85
2024-03-12T10:08:45.403Z,19.80
2024-03-12T10:11:23.291Z,18.77
2024-03-12T10:13:58.095Z,19.33
2024-03-12T10:16:31.345Z,18.52
2024-03-12T10:19:10.837Z,19.98
2024-03-12T10:21:39.436Z,20.98
2024-03-12T10:24:18.460Z,19.70
2024-03-12T10:26:46.471Z,19.95
2024-03-12T10:29:16.919Z,21.35
2024-03-12T10:31:46.692Z,22.60
2024-03-12T10:34:24.605Z,23.65
2024-03-12T10:36:51.976Z,23.55
2024-03-12T10:39:30.459Z,20.70
2024-03-12T10:42:00.636Z,22.50
2024-03-12T10:44:30.014Z,22.92
2024-03-12T10:47:00.679Z,24.05
2024-03-12T10:49:29.511Z,24.55
2024-03-12T10:51:57.808Z,26.58
2024-03-12T10:54:26.514Z,26.50
2024-03-12T10:56:55.654Z,21.88
2024-03-12T10:59:23.109Z,26.35
2024-03-12T11:01:50.212Z,23.58
2024-03-12T11:04:18.590Z,23.45
2024-03-12T11:06:49.164Z,23.80
2024-03-12T11:09:23.039Z,21.92
2024-03-12T11:11:50.782Z,22.45
2024-03-12T11:14:17.868Z,25.00
2024-03-12T11:16:44.975Z,23.73
2024-03-12T11:19:24.814Z,25.08
2024-03-12T11:21:53.120Z,25.42
2024-03-12T11:24:27.336Z,22.02
2024-03-12T11:26:54.342Z,18.33
2024-03-12T11:29:41.169Z,23.08
2024-03-12T11:32:12.383Z,20.38
2024-03-12T11:34:39.543Z,22.77
2024-03-12T11:37:16.031Z,21.27
2024-03-12T11:39:43.013Z,22.58
2024-03-12T11:42:16.231Z,23.00
2024-03-12T11:44:50.699Z,21.08
2024-03-12T11:47:32.816Z,21.52
2024-03-12T11:50:02.975Z,22.65
2024-03-12T11:52:33.276Z,22.90
2024-03-12T11:55:00.864Z,23.17
2024-03-12T11:57:31.184Z,21.80
2024-03-12T11:59:59.073Z,21.13
2024-03-12T12:02:27.902Z,21.25
2024-03-12T12:04:56.719Z,20.65
2024-03-12T12:07:26.698Z,23.10
2024-03-12T12:09:54.269Z,21.35
2024-03-12T12:12:21.756Z,23.17
2024-03-12T12:14:49.483Z,20.40
2024-03-12T12:17:25.132Z,21.45
2024-03-12T12:20:16.209Z,22.33
2024-03-12T12:22:47.727Z,19.23
2024-03-12T12:25:20.021Z,20.88
2024-03-12T12:27:47.647Z,17.75
2024-03-12T12:30:20.648Z,20.30
2024-03-12T12:32:52.297Z,21.77
2024-03-12T12:35:21.871Z,20.80
2024-03-12T12:37:50.419Z,19.80
2024-03-12T12:40:22.329Z,18.27
2024-03-12T12:42:54.565Z,19.02
2024-03-12T12:45:22.093Z,21.67
2024-03-12T12:47:52.034Z,21.83
2024-03-12T12:50:29.737Z,21.17
2024-03-12T12:53:02.905Z,20.52
2024-03-12T12:55:33.173Z,22.13
2024-03-12T12:58:04.925Z,20.88
2024-03-12T13:00:39.394Z,20.25
2024-03-12T13:03:18.031Z,21.35
2024-03-12T13:05:48.659Z,25.73
2024-03-12T13:08:28.317Z,26.48
2024-03-12T13:11:10.841Z,29.20
2024-03-12T13:13:45.039Z,27.85
2024-03-12T13:16:15.237Z,30.13
2024-03-12T13:19:02.515Z,28.65
2024-03-12T13:21:29.710Z,26.30
2024-03-12T13:23:56.679Z,24.38
2024-03-12T13:26:24.161Z,25.15
2024-03-12T13:28:55.226Z,25.23
2024-03-12T13:31:23.590Z,23.83
2024-03-12T13:33:52.301Z,24.77
2024-03-12T13:36:23.153Z,24.60
2024-03-12T13:38:56.936Z,24.40
2024-03-12T13:41:26.708Z,21.02
2024-03-12T13:43:53.839Z,21.40
2024-03-12T13:46:21.138Z,21.73
2024-03-12T13:48:48.415Z,23.33
2024-03-12T13:51:15.388Z,21.92
2024-03-12T13:53:44.224Z,25.52
2024-03-12T13:56:11.421Z,19.60
2024-03-12T13:58:41.016Z,22.55
2024-03-12T14:01:12.733Z,20.70
2024-03-12T14:03:41.640Z,22.80
2024-03-12T14:06:10.405Z,19.83
2024-03-12T14:08:37.884Z,21.13
2024-03-12T14:11:05.133Z,19.25
2024-03-12T14:13:33.211Z,19.02
2024-03-12T14:16:00.657Z,19.58
2024-03-12T14:18:28.261Z,20.80
2024-03-12T14:20:56.247Z,22.55
2024-03-12T14:23:24.158Z,21.30
2024-03-12T14:25:51.242Z,23.10
2024-03-12T14:28:18.349Z,23.80
2024-03-12T14:30:48.504Z,22.17
2024-03-12T14:33:15.599Z,21.73
2024-03-12T14:35:42.595Z,21.48
2024-03-12T14:38:09.534Z,19.70
2024-03-12T14:40:36.518Z,25.08
2024-03-12T14:43:04.714Z,23.02
2024-03-12T14:45:32.044Z,21.25
2024-03-12T14:47:59.270Z,19.95
2024-03-12T14:50:26.173Z,21.45
2024-03-12T14:52:53.204Z,19.92
2024-03-12T14:55:20.100Z,23.88
2024-03-12T14:57:46.971Z,20.10
2024-03-12T15:00:17.934Z,22.20
2024-03-12T15:02:46.269Z,24.88
2024-03-12T15:05:13.952Z,21.30
2024-03-12T15:07:42.902Z,20.55
2024-03-12T15:10:10.711Z,23.75
2024-03-12T15:12:40.827Z,23.77
2024-03-12T15:15:12.315Z,23.75
2024-03-12T15:17:40.418Z,21.60
2024-03-12T15:20:12.527Z,19.98
2024-03-12T15:22:39.316Z,21.23
2024-03-12T15:25:13.149Z,22.75
2024-03-12T15:27:43.160Z,23.73
2024-03-12T15:30:11.109Z,23.73
2024-03-12T15:32:39.958Z,24.33
2024-03-12T15:35:07.921Z,26.80
2024-03-12T15:37:36.729Z,28.73
2024-03-12T15:40:09.191Z,27.90
2024-03-12T15:42:42.947Z,28.13
2024-03-12T15:45:12.137Z,27.92
2024-03-12T15:47:40.934Z,29.05
2024-03-12T15:50:08.832Z,24.27
2024-03-12T15:52:36.140Z,24.30
2024-03-12T15:55:03.533Z,25.13
2024-03-12T15:57:31.077Z,22.98
2024-03-12T15:59:58.298Z,23.50
2024-03-12T16:02:25.647Z,25.13
2024-03-12T16:04:52.678Z,21.73
2024-03-12T16:07:19.848Z,23.80
2024-03-12T16:09:47.387Z,21.25
2024-03-12T16:12:14.821Z,25.35
2024-03-12T16:14:44.670Z,25.80
2024-03-12T16:17:13.262Z,28.08
2024-03-12T16:19:40.171Z,26.65
2024-03-12T16:22:08.527Z,27.25
2024-03-12T16:24:35.450Z,26.77
2024-03-12T16:27:05.088Z,24.38
2024-03-12T16:29:34.203Z,21.70
2024-03-12T16:32:06.478Z,24.20
2024-03-12T16:34:33.541Z,21.85
2024-03-12T16:37:00.499Z,22.02
2024-03-12T16:39:27.376Z,22.35
2024-03-12T16:41:57.894Z,20.15
2024-03-12T16:44:28.196Z,20.35
2024-03-12T16:46:55.668Z,20.15
2024-03-12T16:49:27.284Z,21.17
2024-03-12T16:51:54.731Z,19.75
2024-03-12T16:54:21.968Z,19.05
2024-03-12T16:56:49.131Z,19.73
2024-03-12T16:59:19.565Z,21.52
2024-03-12T17:01:48.058Z,19.55
2024-03-12T17:04:15.495Z,20.95
2024-03-12T17:06:42.902Z,20.88
2024-03-12T17:09:11.109Z,20.55
2024-03-12T17:11:39.121Z,19.05
2024-03-12T17:14:12.107Z,17.17
2024-03-12T17:16:46.766Z,19.17
2024-03-12T17:19:17.279Z,19.13
2024-03-12T17:21:44.985Z,17.42
2024-03-12T17:24:14.352Z,18.58
2024-03-12T17:26:41.662Z,18.75
2024-03-12T17:29:11.059Z,15.27
2024-03-12T17:31:39.703Z,17.20
2024-03-12T17:34:07.322Z,18.42
2024-03-12T17:36:35.590Z,16.02
2024-03-12T17:39:10.899Z,17.23
2024-03-12T17:41:38.998Z,17.15
2024-03-12T17:44:07.792Z,17.38
2024-03-12T17:46:43.731Z,14.70
2024-03-12T17:49:17.898Z,16.85
2024-03-12T17:51:46.038Z,13.32
2024-03-12T17:54:15.614Z,14.90
2024-03-12T17:56:49.991Z,14.90
2024-03-12T17:59:20.147Z,16.20
2024-03-12T18:01:48.296Z,15.98
2024-03-12T18:04:16.128Z,14.32
2024-03-12T18:06:45.491Z,13.60
2024-03-12T18:09:15.681Z,13.45
2024-03-12T18:11:43.883Z,14.07
2024-03-12T18:14:11.265Z,14.00
2024-03-12T18:16:39.490Z,15.07
2024-03-12T18:19:07.374Z,14.07
2024-03-12T18:21:34.488Z,14.57
2024-03-12T18:24:01.645Z,16.00
2024-03-12T18:26:29.034Z,14.75
2024-03-12T18:28:57.919Z,15.23
2024-03-12T18:31:25.481Z,13.23
2024-03-12T18:33:52.399Z,13.23
2024-03-12T18:36:19.421Z,15.00
2024-03-12T18:38:46.368Z,14.90
2024-03-12T18:41:15.231Z,13.88
2024-03-12T18:43:42.222Z,15.57
2024-03-12T18:46:09.568Z,14.50
2024-03-12T18:48:37.103Z,16.35
2024-03-12T18:51:05.799Z,14.52
2024-03-12T18:53:34.688Z,15.10
2024-03-12T18:56:02.315Z,15.65
2024-03-12T18:58:30.275Z,14.75
2024-03-12T19:00:58.415Z,16.50
2024-03-12T19:03:35.921Z,15.10
2024-03-12T19:06:18.467Z,16.30
2024-03-12T19:08:51.572Z,15.55
2024-03-12T19:11:20.778Z,14.55
2024-03-12T19:13:48.366Z,16.50
2024-03-12T19:16:18.665Z,12.82
2024-03-12T19:18:52.060Z,14.00
2024-03-12T19:21:20.953Z,15.60
2024-03-12T19:23:49.917Z,14.77
2024-03-12T19:26:19.137Z,14.20
2024-03-12T19:28:46.959Z,14.15
2024-03-12T19:31:15.377Z,16.42
2024-03-12T19:33:43.533Z,15.77
2024-03-12T19:36:15.817Z,17.23
2024-03-12T19:38:43.076Z,16.65
2024-03-12T19:41:13.418Z,16.45
2024-03-12T19:43:41.074Z,14.73
2024-03-12T19:46:09.065Z,14.68
2024-03-12T19:48:37.166Z,15.43
2024-03-12T19:51:08.408Z,15.57
2024-03-12T19:53:35.556Z,14.00
2024-03-12T19:56:02.549Z,15.32
2024-03-12T19:58:30.739Z,15.40
2024-03-12T20:00:58.880Z,13.98
2024-03-12T20:03:26.931Z,14.38
2024-03-12T20:05:58.029Z,15.20
2024-03-12T20:08:26.773Z,15.18
2024-03-12T20:10:54.013Z,15.18
2024-03-12T20:13:22.044Z,15.48
2024-03-12T20:15:49.094Z,15.43
2024-03-12T20:18:16.376Z,14.60
2024-03-12T20:20:44.600Z,15.45
2024-03-12T20:23:12.056Z,13.73
2024-03-12T20:25:40.959Z,14.98
2024-03-12T20:28:11.029Z,15.90
2024-03-12T20:30:39.894Z,15.98
2024-03-12T20:33:09.669Z,14.38
2024-03-12T20:35:39.331Z,15.73
2024-03-12T20:38:07.927Z,14.13
2024-03-12T20:40:34.926Z,15.70
2024-03-12T20:43:02.016Z,14.85
2024-03-12T20:45:30.159Z,15.38
2024-03-12T20:47:57.486Z,17.50
2024-03-12T20:50:24.984Z,16.25
2024-03-12T20:52:52.153Z,17.85
2024-03-12T20:55:19.845Z,16.67
2024-03-12T20:57:49.059Z,17.40
2024-03-12T21:00:18.111Z,18.45
2024-03-12T21:02:49.633Z,18.05
2024-03-12T21:05:17.450Z,16.52
2024-03-12T21:07:44.839Z,18.38
2024-03-12T21:10:12.798Z,18.75
2024-03-12T21:12:49.896Z,18.55
2024-03-12T21:15:17.888Z,20.35
2024-03-12T21:17:45.764Z,18.80
2024-03-12T21:20:19.722Z,20.42
2024-03-12T21:22:46.700Z,18.98
2024-03-12T21:25:13.648Z,16.00
2024-03-12T21:30:13.588Z,15.75
2024-03-12T21:32:41.780Z,15.38
2024-03-12T21:35:09.243Z,17.13
2024-03-12T21:37:39.375Z,17.40
2024-03-12T21:40:12.648Z,16.63
2024-03-12T21:42:40.436Z,11.70
2024-03-12T21:45:07.638Z,14.65
2024-03-12T21:47:38.007Z,15.85
2024-03-12T21:50:15.123Z,16.05
2024-03-12T21:52:42.422Z,14.82
2024-03-12T21:55:11.381Z,15.50
2024-03-12T21:57:44.589Z,15.27
2024-03-12T22:00:19.778Z,14.32
2024-03-12T22:02:47.949Z,15.18
2024-03-12T22:05:17.057Z,14.63
2024-03-12T22:07:45.019Z,14.60
2024-03-12T22:10:13.723Z,15.45
2024-03-12T22:12:41.594Z,12.77
2024-03-12T22:15:12.258Z,14.32
2024-03-12T22:17:39.386Z,16.20
2024-03-12T22:20:06.810Z,15.05
2024-03-12T22:22:33.993Z,13.73
2024-03-12T22:25:01.141Z,15.13
2024-03-12T22:27:29.467Z,15.00
2024-03-12T22:29:56.566Z,12.10
2024-03-12T22:32:27.341Z,15.10
2024-03-12T22:34:55.928Z,15.38
2024-03-12T22:37:23.334Z,14.88
2024-03-12T22:39:50.681Z,16.70
2024-03-12T22:42:18.742Z,15.02
2024-03-12T22:44:46.044Z,16.20
2024-03-12T22:47:13.406Z,17.20
2024-03-12T22:49:44.556Z,16.90
2024-03-12T22:52:12.759Z,15.07
2024-03-12T22:54:41.446Z,16.38
2024-03-12T22:57:09.565Z,17.95
2024-03-12T22:59:36.746Z,18.45
2024-03-12T23:02:04.329Z,18.85
2024-03-12T23:04:31.455Z,18.58
2024-03-12T23:07:01.382Z,20.27
2024-03-12T23:09:28.673Z,18.33
2024-03-12T23:11:58.312Z,16.88
2024-03-12T23:14:25.282Z,19.35
2024-03-12T23:16:52.795Z,15.57
2024-03-12T23:19:19.735Z,17.15
2024-03-12T23:21:46.953Z,19.13
2024-03-12T23:24:14.958Z,21.15
2024-03-12T23:26:43.562Z,20.42
2024-03-12T23:29:13.531Z,20.48
2024-03-12T23:31:40.431Z,23.08
2024-03-12T23:34:07.601Z,24.92
2024-03-12T23:36:34.785Z,22.13
2024-03-12T23:39:01.834Z,24.05
2024-03-12T23:41:31.256Z,24.25
2024-03-12T23:43:58.357Z,27.48
2024-03-12T23:46:26.095Z,28.70
2024-03-12T23:48:53.414Z,26.13
2024-03-12T23:51:20.248Z,26.60
2024-03-12T23:53:47.373Z,23.05
2024-03-12T23:56:14.276Z,24.15
2024-03-12T23:58:41.103Z,21.77
